sensor_id;sensor_type;location;lat;lon;timestamp;P1;durP1;ratioP1;P2;durP2;ratioP2
29422;SDS011;16399;51.686;8.684;2023-02-28T00:01:26;16.12;;;4.55;;
29422;SDS011;16399;51.686;8.684;2023-02-28T00:04:28;16.65;;;4.62;;
29422;SDS011;16399;51.686;8.684;2023-02-28T00:07:31;19.87;;;5.00;;
29422;SDS011;16399;51.686;8.684;2023-02-28T00:10:33;24.07;;;6.67;;
29422;SDS011;16399;51.686;8.684;2023-02-28T00:13:38;27.37;;;6.70;;
29422;SDS011;16399;51.686;8.684;2023-02-28T00:16:42;21.73;;;4.87;;
29422;SDS011;16399;51.686;8.684;2023-02-28T00:19:45;8.23;;;2.17;;
29422;SDS011;16399;51.686;8.684;2023-02-28T00:22:48;5.53;;;2.22;;
29422;SDS011;16399;51.686;8.684;2023-02-28T00:29:14;7.20;;;2.33;;
29422;SDS011;16399;51.686;8.684;2023-02-28T00:32:16;7.92;;;1.98;;
29422;SDS011;16399;51.686;8.684;2023-02-28T00:35:19;3.75;;;1.62;;
29422;SDS011;16399;51.686;8.684;2023-02-28T00:38:21;5.17;;;1.72;;
29422;SDS011;16399;51.686;8.684;2023-02-28T00:41:23;4.33;;;1.67;;
29422;SDS011;16399;51.686;8.684;2023-02-28T00:44:26;2.70;;;1.30;;
29422;SDS011;16399;51.686;8.684;2023-02-28T00:47:28;5.15;;;1.87;;
29422;SDS011;16399;51.686;8.684;2023-02-28T00:50:30;4.12;;;1.50;;
29422;SDS011;16399;51.686;8.684;2023-02-28T00:53:33;3.90;;;1.42;;
29422;SDS011;16399;51.686;8.684;2023-02-28T00:56:35;4.22;;;1.42;;
29422;SDS011;16399;51.686;8.684;2023-02-28T00:59:39;3.98;;;1.20;;
29422;SDS011;16399;51.686;8.684;2023-02-28T01:02:41;4.78;;;1.20;;
29422;SDS011;16399;51.686;8.684;2023-02-28T01:05:43;5.08;;;1.45;;
29422;SDS011;16399;51.686;8.684;2023-02-28T01:08:46;13.00;;;3.20;;
29422;SDS011;16399;51.686;8.684;2023-02-28T01:11:48;19.92;;;4.60;;
29422;SDS011;16399;51.686;8.684;2023-02-28T01:14:51;10.78;;;2.98;;
29422;SDS011;16399;51.686;8.684;2023-02-28T01:17:53;6.58;;;1.90;;
29422;SDS011;16399;51.686;8.684;2023-02-28T01:20:55;5.45;;;1.87;;
29422;SDS011;16399;51.686;8.684;2023-02-28T01:23:58;4.05;;;1.52;;
29422;SDS011;16399;51.686;8.684;2023-02-28T01:27:00;8.58;;;2.30;;
29422;SDS011;16399;51.686;8.684;2023-02-28T01:30:02;5.55;;;1.55;;
29422;SDS011;16399;51.686;8.684;2023-02-28T01:33:05;5.60;;;1.60;;
29422;SDS011;16399;51.686;8.684;2023-02-28T01:36:09;4.30;;;1.60;;
29422;SDS011;16399;51.686;8.684;2023-02-28T01:39:15;4.03;;;1.45;;
29422;SDS011;16399;51.686;8.684;2023-02-28T01:42:18;6.08;;;1.72;;
29422;SDS011;16399;51.686;8.684;2023-02-28T01:45:27;5.53;;;2.02;;
29422;SDS011;16399;51.686;8.684;2023-02-28T01:48:32;5.70;;;2.00;;
29422;SDS011;16399;51.686;8.684;2023-02-28T01:51:38;8.45;;;1.95;;
29422;SDS011;16399;51.686;8.684;2023-02-28T01:54:51;3.15;;;1.45;;
29422;SDS011;16399;51.686;8.684;2023-02-28T01:57:57;3.83;;;1.52;;
29422;SDS011;16399;51.686;8.684;2023-02-28T02:01:02;7.25;;;1.77;;
29422;SDS011;16399;51.686;8.684;2023-02-28T02:04:05;5.10;;;1.70;;
29422;SDS011;16399;51.686;8.684;2023-02-28T02:07:07;4.00;;;1.70;;
29422;SDS011;16399;51.686;8.684;2023-02-28T02:10:21;2.95;;;1.22;;
29422;SDS011;16399;51.686;8.684;2023-02-28T02:13:27;3.92;;;1.22;;
29422;SDS011;16399;51.686;8.684;2023-02-28T02:20:16;2.83;;;1.20;;
29422;SDS011;16399;51.686;8.684;2023-02-28T02:30:15;3.12;;;1.32;;
29422;SDS011;16399;51.686;8.684;2023-02-28T02:40:43;2.50;;;1.40;;
29422;SDS011;16399;51.686;8.684;2023-02-28T02:43:50;2.42;;;1.10;;
29422;SDS011;16399;51.686;8.684;2023-02-28T02:46:55;5.60;;;1.65;;
29422;SDS011;16399;51.686;8.684;2023-02-28T02:50:04;3.67;;;1.45;;
29422;SDS011;16399;51.686;8.684;2023-02-28T02:53:08;3.75;;;1.77;;
29422;SDS011;16399;51.686;8.684;2023-02-28T02:56:12;3.75;;;1.50;;
29422;SDS011;16399;51.686;8.684;2023-02-28T02:59:18;5.97;;;1.65;;
29422;SDS011;16399;51.686;8.684;2023-02-28T03:02:21;2.98;;;1.30;;
29422;SDS011;16399;51.686;8.684;2023-02-28T03:08:31;2.80;;;1.40;;
29422;SDS011;16399;51.686;8.684;2023-02-28T03:11:37;3.27;;;1.30;;
29422;SDS011;16399;51.686;8.684;2023-02-28T03:21:34;3.30;;;1.50;;
29422;SDS011;16399;51.686;8.684;2023-02-28T03:28:15;3.37;;;1.40;;
29422;SDS011;16399;51.686;8.684;2023-02-28T03:31:35;4.25;;;1.70;;
29422;SDS011;16399;51.686;8.684;2023-02-28T03:34:34;5.70;;;2.17;;
29422;SDS011;16399;51.686;8.684;2023-02-28T03:37:40;5.62;;;2.22;;
29422;SDS011;16399;51.686;8.684;2023-02-28T03:44:10;5.55;;;1.82;;
29422;SDS011;16399;51.686;8.684;2023-02-28T03:47:20;4.85;;;1.98;;
29422;SDS011;16399;51.686;8.684;2023-02-28T03:50:35;3.95;;;1.60;;
29422;SDS011;16399;51.686;8.684;2023-02-28T03:53:58;5.25;;;1.87;;
29422;SDS011;16399;51.686;8.684;2023-02-28T03:56:59;4.22;;;1.80;;
29422;SDS011;16399;51.686;8.684;2023-02-28T04:00:04;6.97;;;1.87;;
29422;SDS011;16399;51.686;8.684;2023-02-28T04:03:14;5.95;;;1.90;;
29422;SDS011;16399;51.686;8.684;2023-02-28T04:06:18;7.72;;;2.20;;
29422;SDS011;16399;51.686;8.684;2023-02-28T04:09:25;3.37;;;1.70;;
29422;SDS011;16399;51.686;8.684;2023-02-28T04:12:29;4.10;;;1.87;;
29422;SDS011;16399;51.686;8.684;2023-02-28T04:15:31;3.30;;;1.60;;
29422;SDS011;16399;51.686;8.684;2023-02-28T04:18:34;3.37;;;1.62;;
29422;SDS011;16399;51.686;8.684;2023-02-28T04:21:40;4.05;;;1.85;;
29422;SDS011;16399;51.686;8.684;2023-02-28T04:24:41;3.40;;;1.52;;
29422;SDS011;16399;51.686;8.684;2023-02-28T04:27:43;4.03;;;1.87;;
29422;SDS011;16399;51.686;8.684;2023-02-28T04:30:46;8.45;;;1.82;;
29422;SDS011;16399;51.686;8.684;2023-02-28T04:33:48;4.05;;;1.60;;
29422;SDS011;16399;51.686;8.684;2023-02-28T04:36:50;3.62;;;1.70;;
29422;SDS011;16399;51.686;8.684;2023-02-28T04:39:54;6.53;;;1.77;;
29422;SDS011;16399;51.686;8.684;2023-02-28T04:42:57;3.55;;;1.67;;
29422;SDS011;16399;51.686;8.684;2023-02-28T04:46:00;7.60;;;2.30;;
29422;SDS011;16399;51.686;8.684;2023-02-28T04:49:04;6.20;;;2.62;;
29422;SDS011;16399;51.686;8.684;2023-02-28T04:52:06;6.45;;;2.05;;
29422;SDS011;16399;51.686;8.684;2023-02-28T04:55:10;4.27;;;2.07;;
29422;SDS011;16399;51.686;8.684;2023-02-28T04:58:13;6.08;;;1.95;;
29422;SDS011;16399;51.686;8.684;2023-02-28T05:01:22;7.65;;;2.75;;
29422;SDS011;16399;51.686;8.684;2023-02-28T05:04:26;5.83;;;2.30;;
29422;SDS011;16399;51.686;8.684;2023-02-28T05:07:29;7.47;;;2.65;;
29422;SDS011;16399;51.686;8.684;2023-02-28T05:10:31;6.60;;;2.05;;
29422;SDS011;16399;51.686;8.684;2023-02-28T05:13:34;3.55;;;1.52;;
29422;SDS011;16399;51.686;8.684;2023-02-28T05:16:36;7.37;;;2.25;;
29422;SDS011;16399;51.686;8.684;2023-02-28T05:19:38;10.32;;;3.00;;
29422;SDS011;16399;51.686;8.684;2023-02-28T05:22:41;8.33;;;2.35;;
29422;SDS011;16399;51.686;8.684;2023-02-28T05:25:44;6.00;;;2.10;;
29422;SDS011;16399;51.686;8.684;2023-02-28T05:28:46;4.22;;;1.90;;
29422;SDS011;16399;51.686;8.684;2023-02-28T05:31:49;6.72;;;1.98;;
29422;SDS011;16399;51.686;8.684;2023-02-28T05:34:51;5.17;;;2.10;;
29422;SDS011;16399;51.686;8.684;2023-02-28T05:37:53;5.42;;;2.08;;
29422;SDS011;16399;51.686;8.684;2023-02-28T05:40:56;4.45;;;2.10;;
29422;SDS011;16399;51.686;8.684;2023-02-28T05:43:58;7.37;;;2.35;;
29422;SDS011;16399;51.686;8.684;2023-02-28T05:47:01;8.45;;;2.75;;
29422;SDS011;16399;51.686;8.684;2023-02-28T05:50:04;6.25;;;2.80;;
29422;SDS011;16399;51.686;8.684;2023-02-28T05:53:06;7.15;;;3.02;;
29422;SDS011;16399;51.686;8.684;2023-02-28T05:56:09;5.53;;;2.55;;
29422;SDS011;16399;51.686;8.684;2023-02-28T05:59:12;5.05;;;2.20;;
29422;SDS011;16399;51.686;8.684;2023-02-28T06:02:15;8.65;;;2.60;;
29422;SDS011;16399;51.686;8.684;2023-02-28T06:05:18;6.40;;;2.10;;
29422;SDS011;16399;51.686;8.684;2023-02-28T06:08:21;6.72;;;2.52;;
29422;SDS011;16399;51.686;8.684;2023-02-28T06:11:23;11.15;;;2.50;;
29422;SDS011;16399;51.686;8.684;2023-02-28T06:14:28;7.72;;;2.45;;
29422;SDS011;16399;51.686;8.684;2023-02-28T06:17:31;5.12;;;2.47;;
29422;SDS011;16399;51.686;8.684;2023-02-28T06:20:33;8.30;;;3.17;;
29422;SDS011;16399;51.686;8.684;2023-02-28T06:23:36;9.60;;;3.33;;
29422;SDS011;16399;51.686;8.684;2023-02-28T06:26:39;11.08;;;3.55;;
29422;SDS011;16399;51.686;8.684;2023-02-28T06:29:41;9.98;;;3.83;;
29422;SDS011;16399;51.686;8.684;2023-02-28T06:32:43;7.78;;;2.65;;
29422;SDS011;16399;51.686;8.684;2023-02-28T06:35:52;6.47;;;2.65;;
29422;SDS011;16399;51.686;8.684;2023-02-28T06:38:54;7.90;;;2.42;;
29422;SDS011;16399;51.686;8.684;2023-02-28T06:41:56;8.05;;;2.83;;
29422;SDS011;16399;51.686;8.684;2023-02-28T06:44:59;7.15;;;2.83;;
29422;SDS011;16399;51.686;8.684;2023-02-28T06:48:03;7.37;;;3.22;;
29422;SDS011;16399;51.686;8.684;2023-02-28T06:51:09;6.70;;;3.15;;
29422;SDS011;16399;51.686;8.684;2023-02-28T06:54:13;7.92;;;3.77;;
29422;SDS011;16399;51.686;8.684;2023-02-28T06:57:15;12.90;;;4.30;;
29422;SDS011;16399;51.686;8.684;2023-02-28T07:00:18;8.33;;;2.85;;
29422;SDS011;16399;51.686;8.684;2023-02-28T07:03:20;7.25;;;2.90;;
29422;SDS011;16399;51.686;8.684;2023-02-28T07:06:23;6.70;;;2.90;;
29422;SDS011;16399;51.686;8.684;2023-02-28T07:09:26;6.58;;;2.90;;
29422;SDS011;16399;51.686;8.684;2023-02-28T07:12:30;7.37;;;3.45;;
29422;SDS011;16399;51.686;8.684;2023-02-28T07:15:34;8.28;;;3.62;;
29422;SDS011;16399;51.686;8.684;2023-02-28T07:18:37;14.77;;;3.27;;
29422;SDS011;16399;51.686;8.684;2023-02-28T07:21:40;9.95;;;3.30;;
29422;SDS011;16399;51.686;8.684;2023-02-28T07:24:42;9.65;;;2.62;;
29422;SDS011;16399;51.686;8.684;2023-02-28T07:27:44;7.37;;;2.70;;
29422;SDS011;16399;51.686;8.684;2023-02-28T07:30:47;10.00;;;2.60;;
29422;SDS011;16399;51.686;8.684;2023-02-28T07:33:49;11.60;;;3.37;;
29422;SDS011;16399;51.686;8.684;2023-02-28T07:36:54;7.45;;;2.80;;
29422;SDS011;16399;51.686;8.684;2023-02-28T07:39:56;8.60;;;2.70;;
29422;SDS011;16399;51.686;8.684;2023-02-28T07:43:02;8.88;;;2.65;;
29422;SDS011;16399;51.686;8.684;2023-02-28T07:46:06;8.15;;;2.58;;
29422;SDS011;16399;51.686;8.684;2023-02-28T07:49:10;7.80;;;2.33;;
29422;SDS011;16399;51.686;8.684;2023-02-28T07:52:13;11.18;;;2.40;;
29422;SDS011;16399;51.686;8.684;2023-02-28T07:55:15;7.15;;;2.67;;
29422;SDS011;16399;51.686;8.684;2023-02-28T07:58:18;6.62;;;1.90;;
29422;SDS011;16399;51.686;8.684;2023-02-28T08:01:20;7.92;;;2.40;;
29422;SDS011;16399;51.686;8.684;2023-02-28T08:04:23;7.62;;;2.80;;
29422;SDS011;16399;51.686;8.684;2023-02-28T08:07:25;9.88;;;2.67;;
29422;SDS011;16399;51.686;8.684;2023-02-28T08:10:27;9.83;;;2.35;;
29422;SDS011;16399;51.686;8.684;2023-02-28T08:13:30;7.42;;;2.47;;
29422;SDS011;16399;51.686;8.684;2023-02-28T08:16:32;5.33;;;2.27;;
29422;SDS011;16399;51.686;8.684;2023-02-28T08:19:35;6.45;;;2.58;;
29422;SDS011;16399;51.686;8.684;2023-02-28T08:22:37;7.67;;;2.52;;
29422;SDS011;16399;51.686;8.684;2023-02-28T08:25:39;9.03;;;2.72;;
29422;SDS011;16399;51.686;8.684;2023-02-28T08:28:41;4.95;;;2.27;;
29422;SDS011;16399;51.686;8.684;2023-02-28T08:31:44;7.75;;;2.45;;
29422;SDS011;16399;51.686;8.684;2023-02-28T08:34:47;6.92;;;2.85;;
29422;SDS011;16399;51.686;8.684;2023-02-28T08:37:49;6.30;;;2.67;;
29422;SDS011;16399;51.686;8.684;2023-02-28T08:41:02;7.20;;;2.20;;
29422;SDS011;16399;51.686;8.684;2023-02-28T08:44:07;6.33;;;1.80;;
29422;SDS011;16399;51.686;8.684;2023-02-28T08:47:09;7.53;;;2.33;;
29422;SDS011;16399;51.686;8.684;2023-02-28T08:50:12;5.95;;;2.10;;
29422;SDS011;16399;51.686;8.684;2023-02-28T08:53:15;6.80;;;2.55;;
29422;SDS011;16399;51.686;8.684;2023-02-28T08:56:17;6.60;;;2.75;;
29422;SDS011;16399;51.686;8.684;2023-02-28T08:59:20;9.28;;;2.77;;
29422;SDS011;16399;51.686;8.684;2023-02-28T09:02:22;6.78;;;1.80;;
29422;SDS011;16399;51.686;8.684;2023-02-28T09:05:24;11.75;;;1.85;;
29422;SDS011;16399;51.686;8.684;2023-02-28T09:08:27;3.92;;;1.70;;
29422;SDS011;16399;51.686;8.684;2023-02-28T09:11:31;4.97;;;1.87;;
29422;SDS011;16399;51.686;8.684;2023-02-28T09:14:35;4.55;;;2.00;;
29422;SDS011;16399;51.686;8.684;2023-02-28T09:17:37;9.58;;;2.00;;
29422;SDS011;16399;51.686;8.684;2023-02-28T09:20:40;3.83;;;1.55;;
29422;SDS011;16399;51.686;8.684;2023-02-28T09:23:43;11.10;;;2.20;;
29422;SDS011;16399;51.686;8.684;2023-02-28T09:26:46;5.70;;;2.07;;
29422;SDS011;16399;51.686;8.684;2023-02-28T09:29:49;4.45;;;2.33;;
29422;SDS011;16399;51.686;8.684;2023-02-28T09:32:51;6.03;;;1.95;;
29422;SDS011;16399;51.686;8.684;2023-02-28T09:35:58;9.70;;;2.12;;
29422;SDS011;16399;51.686;8.684;2023-02-28T09:39:01;6.30;;;2.25;;
29422;SDS011;16399;51.686;8.684;2023-02-28T09:42:04;4.33;;;2.08;;
29422;SDS011;16399;51.686;8.684;2023-02-28T09:45:28;5.08;;;2.10;;
29422;SDS011;16399;51.686;8.684;2023-02-28T09:48:20;5.22;;;2.00;;
29422;SDS011;16399;51.686;8.684;2023-02-28T09:51:30;4.72;;;2.10;;
29422;SDS011;16399;51.686;8.684;2023-02-28T09:54:44;4.12;;;2.15;;
29422;SDS011;16399;51.686;8.684;2023-02-28T09:57:47;4.78;;;2.10;;
29422;SDS011;16399;51.686;8.684;2023-02-28T10:00:56;6.33;;;2.47;;
29422;SDS011;16399;51.686;8.684;2023-02-28T10:04:08;9.58;;;2.70;;
29422;SDS011;16399;51.686;8.684;2023-02-28T10:07:18;6.05;;;2.33;;
29422;SDS011;16399;51.686;8.684;2023-02-28T10:13:36;6.75;;;2.50;;
29422;SDS011;16399;51.686;8.684;2023-02-28T10:16:45;6.75;;;2.80;;
29422;SDS011;16399;51.686;8.684;2023-02-28T10:20:01;6.12;;;2.62;;
29422;SDS011;16399;51.686;8.684;2023-02-28T10:23:21;6.45;;;2.40;;
29422;SDS011;16399;51.686;8.684;2023-02-28T10:26:25;5.97;;;1.92;;
29422;SDS011;16399;51.686;8.684;2023-02-28T10:29:31;3.67;;;1.80;;
29422;SDS011;16399;51.686;8.684;2023-02-28T10:32:35;7.90;;;2.40;;
29422;SDS011;16399;51.686;8.684;2023-02-28T10:35:39;8.28;;;2.75;;
29422;SDS011;16399;51.686;8.684;2023-02-28T10:38:43;5.00;;;2.35;;
29422;SDS011;16399;51.686;8.684;2023-02-28T10:41:47;5.08;;;2.08;;
29422;SDS011;16399;51.686;8.684;2023-02-28T10:44:49;7.47;;;2.15;;
29422;SDS011;16399;51.686;8.684;2023-02-28T10:48:02;5.17;;;2.10;;
29422;SDS011;16399;51.686;8.684;2023-02-28T10:51:07;5.83;;;2.25;;
29422;SDS011;16399;51.686;8.684;2023-02-28T10:54:15;5.55;;;2.00;;
29422;SDS011;16399;51.686;8.684;2023-02-28T10:57:21;6.10;;;2.30;;
29422;SDS011;16399;51.686;8.684;2023-02-28T11:00:33;3.92;;;2.00;;
29422;SDS011;16399;51.686;8.684;2023-02-28T11:03:36;6.87;;;2.35;;
29422;SDS011;16399;51.686;8.684;2023-02-28T11:06:39;6.15;;;2.17;;
29422;SDS011;16399;51.686;8.684;2023-02-28T11:09:41;5.08;;;2.27;;
29422;SDS011;16399;51.686;8.684;2023-02-28T11:12:45;4.72;;;2.42;;
29422;SDS011;16399;51.686;8.684;2023-02-28T11:15:51;10.50;;;2.27;;
29422;SDS011;16399;51.686;8.684;2023-02-28T11:18:58;5.67;;;2.02;;
29422;SDS011;16399;51.686;8.684;2023-02-28T11:22:01;5.62;;;2.20;;
29422;SDS011;16399;51.686;8.684;2023-02-28T11:25:09;7.27;;;2.40;;
29422;SDS011;16399;51.686;8.684;2023-02-28T11:28:28;4.83;;;2.25;;
29422;SDS011;16399;51.686;8.684;2023-02-28T11:31:27;4.58;;;2.20;;
29422;SDS011;16399;51.686;8.684;2023-02-28T11:34:30;5.22;;;2.17;;
29422;SDS011;16399;51.686;8.684;2023-02-28T11:37:33;5.30;;;2.02;;
29422;SDS011;16399;51.686;8.684;2023-02-28T11:40:39;5.87;;;2.00;;
29422;SDS011;16399;51.686;8.684;2023-02-28T11:44:01;4.90;;;2.37;;
29422;SDS011;16399;51.686;8.684;2023-02-28T11:47:21;4.93;;;2.40;;
29422;SDS011;16399;51.686;8.684;2023-02-28T11:57:16;5.97;;;2.90;;
29422;SDS011;16399;51.686;8.684;2023-02-28T12:03:43;6.30;;;1.95;;
29422;SDS011;16399;51.686;8.684;2023-02-28T12:07:00;4.03;;;2.02;;
29422;SDS011;16399;51.686;8.684;2023-02-28T12:10:22;4.67;;;1.92;;
29422;SDS011;16399;51.686;8.684;2023-02-28T12:16:48;4.78;;;1.95;;
29422;SDS011;16399;51.686;8.684;2023-02-28T12:23:43;5.83;;;2.83;;
29422;SDS011;16399;51.686;8.684;2023-02-28T12:26:44;4.12;;;2.12;;
29422;SDS011;16399;51.686;8.684;2023-02-28T12:29:58;4.95;;;2.65;;
29422;SDS011;16399;51.686;8.684;2023-02-28T12:33:08;4.60;;;2.60;;
29422;SDS011;16399;51.686;8.684;2023-02-28T12:36:14;5.33;;;2.33;;
29422;SDS011;16399;51.686;8.684;2023-02-28T12:39:39;7.20;;;2.47;;
29422;SDS011;16399;51.686;8.684;2023-02-28T12:42:54;5.42;;;2.12;;
29422;SDS011;16399;51.686;8.684;2023-02-28T12:45:58;4.92;;;2.12;;
29422;SDS011;16399;51.686;8.684;2023-02-28T12:49:14;5.58;;;2.50;;
29422;SDS011;16399;51.686;8.684;2023-02-28T12:52:28;5.00;;;2.60;;
29422;SDS011;16399;51.686;8.684;2023-02-28T12:55:41;5.25;;;2.15;;
29422;SDS011;16399;51.686;8.684;2023-02-28T12:58:47;4.35;;;2.00;;
29422;SDS011;16399;51.686;8.684;2023-02-28T13:05:12;6.85;;;2.77;;
29422;SDS011;16399;51.686;8.684;2023-02-28T13:11:46;7.12;;;2.83;;
29422;SDS011;16399;51.686;8.684;2023-02-28T13:15:12;5.25;;;2.02;;
29422;SDS011;16399;51.686;8.684;2023-02-28T13:18:39;4.25;;;1.90;;
29422;SDS011;16399;51.686;8.684;2023-02-28T13:21:46;7.97;;;2.83;;
29422;SDS011;16399;51.686;8.684;2023-02-28T13:24:50;4.70;;;2.27;;
29422;SDS011;16399;51.686;8.684;2023-02-28T13:27:59;4.55;;;1.82;;
29422;SDS011;16399;51.686;8.684;2023-02-28T13:31:05;5.50;;;2.40;;
29422;SDS011;16399;51.686;8.684;2023-02-28T13:34:15;7.72;;;2.33;;
29422;SDS011;16399;51.686;8.684;2023-02-28T13:40:30;4.55;;;2.12;;
29422;SDS011;16399;51.686;8.684;2023-02-28T13:53:32;5.12;;;2.10;;
29422;SDS011;16399;51.686;8.684;2023-02-28T13:56:46;8.78;;;2.72;;
29422;SDS011;16399;51.686;8.684;2023-02-28T14:03:05;4.85;;;2.35;;
29422;SDS011;16399;51.686;8.684;2023-02-28T14:06:22;7.70;;;2.55;;
29422;SDS011;16399;51.686;8.684;2023-02-28T14:09:33;5.83;;;2.15;;
29422;SDS011;16399;51.686;8.684;2023-02-28T14:12:53;5.25;;;2.45;;
29422;SDS011;16399;51.686;8.684;2023-02-28T14:16:03;5.95;;;2.35;;
29422;SDS011;16399;51.686;8.684;2023-02-28T14:19:26;6.03;;;1.92;;
29422;SDS011;16399;51.686;8.684;2023-02-28T14:22:43;6.45;;;2.08;;
29422;SDS011;16399;51.686;8.684;2023-02-28T14:36:39;12.75;;;3.83;;
29422;SDS011;16399;51.686;8.684;2023-02-28T14:43:06;4.25;;;2.12;;
29422;SDS011;16399;51.686;8.684;2023-02-28T14:45:59;7.42;;;2.27;;
29422;SDS011;16399;51.686;8.684;2023-02-28T14:49:04;4.83;;;2.30;;
29422;SDS011;16399;51.686;8.684;2023-02-28T14:52:13;6.42;;;2.52;;
29422;SDS011;16399;51.686;8.684;2023-02-28T14:55:31;7.33;;;2.58;;
29422;SDS011;16399;51.686;8.684;2023-02-28T14:58:35;4.75;;;2.00;;
29422;SDS011;16399;51.686;8.684;2023-02-28T15:01:38;11.43;;;3.83;;
29422;SDS011;16399;51.686;8.684;2023-02-28T15:04:40;5.40;;;2.60;;
29422;SDS011;16399;51.686;8.684;2023-02-28T15:07:43;7.35;;;2.10;;
29422;SDS011;16399;51.686;8.684;2023-02-28T15:10:54;5.12;;;2.45;;
29422;SDS011;16399;51.686;8.684;2023-02-28T15:13:58;12.05;;;5.45;;
29422;SDS011;16399;51.686;8.684;2023-02-28T15:17:03;8.53;;;3.12;;
29422;SDS011;16399;51.686;8.684;2023-02-28T15:20:11;13.25;;;5.72;;
29422;SDS011;16399;51.686;8.684;2023-02-28T15:23:16;8.13;;;3.45;;
29422;SDS011;16399;51.686;8.684;2023-02-28T15:26:21;8.73;;;4.50;;
29422;SDS011;16399;51.686;8.684;2023-02-28T15:29:26;9.38;;;4.25;;
29422;SDS011;16399;51.686;8.684;2023-02-28T15:32:31;8.28;;;3.70;;
29422;SDS011;16399;51.686;8.684;2023-02-28T15:35:34;30.43;;;11.97;;
29422;SDS011;16399;51.686;8.684;2023-02-28T15:38:36;8.48;;;4.10;;
29422;SDS011;16399;51.686;8.684;2023-02-28T15:41:39;23.62;;;8.38;;
29422;SDS011;16399;51.686;8.684;2023-02-28T15:44:41;7.30;;;2.95;;
29422;SDS011;16399;51.686;8.684;2023-02-28T15:47:44;19.25;;;7.37;;
29422;SDS011;16399;51.686;8.684;2023-02-28T15:50:52;21.95;;;7.37;;
29422;SDS011;16399;51.686;8.684;2023-02-28T15:53:56;7.72;;;2.98;;
29422;SDS011;16399;51.686;8.684;2023-02-28T15:57:13;47.03;;;17.77;;
29422;SDS011;16399;51.686;8.684;2023-02-28T16:00:16;6.00;;;3.40;;
29422;SDS011;16399;51.686;8.684;2023-02-28T16:03:25;13.15;;;5.12;;
29422;SDS011;16399;51.686;8.684;2023-02-28T16:06:36;12.50;;;5.28;;
29422;SDS011;16399;51.686;8.684;2023-02-28T16:09:42;7.53;;;3.87;;
29422;SDS011;16399;51.686;8.684;2023-02-28T16:12:44;6.90;;;3.40;;
29422;SDS011;16399;51.686;8.684;2023-02-28T16:15:46;6.08;;;2.90;;
29422;SDS011;16399;51.686;8.684;2023-02-28T16:18:50;9.10;;;3.10;;
29422;SDS011;16399;51.686;8.684;2023-02-28T16:21:53;5.03;;;2.42;;
29422;SDS011;16399;51.686;8.684;2023-02-28T16:24:55;4.90;;;2.35;;
29422;SDS011;16399;51.686;8.684;2023-02-28T16:27:57;8.78;;;3.02;;
29422;SDS011;16399;51.686;8.684;2023-02-28T16:31:01;6.75;;;2.92;;
29422;SDS011;16399;51.686;8.684;2023-02-28T16:34:05;7.37;;;2.72;;
29422;SDS011;16399;51.686;8.684;2023-02-28T16:37:15;8.00;;;2.33;;
29422;SDS011;16399;51.686;8.684;2023-02-28T16:40:23;5.50;;;2.60;;
29422;SDS011;16399;51.686;8.684;2023-02-28T16:43:28;5.85;;;2.80;;
29422;SDS011;16399;51.686;8.684;2023-02-28T16:46:33;5.35;;;2.47;;
29422;SDS011;16399;51.686;8.684;2023-02-28T16:49:35;6.00;;;2.80;;
29422;SDS011;16399;51.686;8.684;2023-02-28T16:52:37;6.35;;;2.90;;
29422;SDS011;16399;51.686;8.684;2023-02-28T16:55:40;5.87;;;2.62;;
29422;SDS011;16399;51.686;8.684;2023-02-28T16:58:42;9.20;;;3.77;;
29422;SDS011;16399;51.686;8.684;2023-02-28T17:01:45;7.08;;;3.50;;
29422;SDS011;16399;51.686;8.684;2023-02-28T17:04:47;6.92;;;3.12;;
29422;SDS011;16399;51.686;8.684;2023-02-28T17:07:49;12.15;;;4.33;;
29422;SDS011;16399;51.686;8.684;2023-02-28T17:10:51;8.03;;;4.05;;
29422;SDS011;16399;51.686;8.684;2023-02-28T17:13:54;7.20;;;3.45;;
29422;SDS011;16399;51.686;8.684;2023-02-28T17:16:56;9.53;;;4.78;;
29422;SDS011;16399;51.686;8.684;2023-02-28T17:19:58;14.35;;;5.35;;
29422;SDS011;16399;51.686;8.684;2023-02-28T17:23:01;7.72;;;4.00;;
29422;SDS011;16399;51.686;8.684;2023-02-28T17:26:03;8.73;;;4.15;;
29422;SDS011;16399;51.686;8.684;2023-02-28T17:29:15;8.38;;;4.00;;
29422;SDS011;16399;51.686;8.684;2023-02-28T17:32:18;11.25;;;5.30;;
29422;SDS011;16399;51.686;8.684;2023-02-28T17:35:20;13.78;;;6.28;;
29422;SDS011;16399;51.686;8.684;2023-02-28T17:38:23;12.07;;;6.20;;
29422;SDS011;16399;51.686;8.684;2023-02-28T17:41:25;10.23;;;5.25;;
29422;SDS011;16399;51.686;8.684;2023-02-28T17:44:29;10.23;;;4.25;;
29422;SDS011;16399;51.686;8.684;2023-02-28T17:47:32;9.78;;;4.22;;
29422;SDS011;16399;51.686;8.684;2023-02-28T17:50:34;12.07;;;4.35;;
29422;SDS011;16399;51.686;8.684;2023-02-28T17:53:36;11.40;;;5.08;;
29422;SDS011;16399;51.686;8.684;2023-02-28T17:56:39;10.78;;;4.55;;
29422;SDS011;16399;51.686;8.684;2023-02-28T17:59:43;15.20;;;5.20;;
29422;SDS011;16399;51.686;8.684;2023-02-28T18:02:45;17.60;;;7.50;;
29422;SDS011;16399;51.686;8.684;2023-02-28T18:05:48;14.15;;;6.85;;
29422;SDS011;16399;51.686;8.684;2023-02-28T18:08:51;17.75;;;6.37;;
29422;SDS011;16399;51.686;8.684;2023-02-28T18:11:54;15.25;;;6.20;;
29422;SDS011;16399;51.686;8.684;2023-02-28T18:14:57;15.23;;;7.07;;
29422;SDS011;16399;51.686;8.684;2023-02-28T18:17:59;17.80;;;7.80;;
29422;SDS011;16399;51.686;8.684;2023-02-28T18:21:08;15.75;;;6.85;;
29422;SDS011;16399;51.686;8.684;2023-02-28T18:24:07;11.28;;;5.85;;
29422;SDS011;16399;51.686;8.684;2023-02-28T18:27:09;10.35;;;5.42;;
29422;SDS011;16399;51.686;8.684;2023-02-28T18:30:11;9.23;;;4.65;;
29422;SDS011;16399;51.686;8.684;2023-02-28T18:33:14;12.63;;;5.12;;
29422;SDS011;16399;51.686;8.684;2023-02-28T18:36:16;12.05;;;4.97;;
29422;SDS011;16399;51.686;8.684;2023-02-28T18:39:20;11.05;;;4.67;;
29422;SDS011;16399;51.686;8.684;2023-02-28T18:42:22;9.65;;;4.95;;
29422;SDS011;16399;51.686;8.684;2023-02-28T18:45:25;30.15;;;10.23;;
29422;SDS011;16399;51.686;8.684;2023-02-28T18:48:28;22.48;;;8.53;;
29422;SDS011;16399;51.686;8.684;2023-02-28T18:51:30;29.27;;;11.03;;
29422;SDS011;16399;51.686;8.684;2023-02-28T18:54:33;24.80;;;10.08;;
29422;SDS011;16399;51.686;8.684;2023-02-28T18:57:36;19.85;;;9.33;;
29422;SDS011;16399;51.686;8.684;2023-02-28T19:00:38;18.00;;;8.40;;
29422;SDS011;16399;51.686;8.684;2023-02-28T19:03:41;17.90;;;7.60;;
29422;SDS011;16399;51.686;8.684;2023-02-28T19:06:43;17.57;;;7.60;;
29422;SDS011;16399;51.686;8.684;2023-02-28T19:09:45;12.25;;;6.47;;
29422;SDS011;16399;51.686;8.684;2023-02-28T19:12:48;15.48;;;6.78;;
29422;SDS011;16399;51.686;8.684;2023-02-28T19:15:50;23.07;;;8.28;;
29422;SDS011;16399;51.686;8.684;2023-02-28T19:18:54;23.83;;;11.47;;
29422;SDS011;16399;51.686;8.684;2023-02-28T19:21:57;23.18;;;10.28;;
29422;SDS011;16399;51.686;8.684;2023-02-28T19:24:59;11.75;;;5.70;;
29422;SDS011;16399;51.686;8.684;2023-02-28T19:28:01;10.13;;;4.92;;
29422;SDS011;16399;51.686;8.684;2023-02-28T19:31:04;14.58;;;7.58;;
29422;SDS011;16399;51.686;8.684;2023-02-28T19:34:08;19.62;;;8.85;;
29422;SDS011;16399;51.686;8.684;2023-02-28T19:37:10;10.78;;;5.55;;
29422;SDS011;16399;51.686;8.684;2023-02-28T19:40:13;11.03;;;5.22;;
29422;SDS011;16399;51.686;8.684;2023-02-28T19:43:16;11.43;;;5.78;;
29422;SDS011;16399;51.686;8.684;2023-02-28T19:46:24;11.65;;;4.75;;
29422;SDS011;16399;51.686;8.684;2023-02-28T19:49:28;17.50;;;8.50;;
29422;SDS011;16399;51.686;8.684;2023-02-28T19:52:31;9.23;;;4.72;;
29422;SDS011;16399;51.686;8.684;2023-02-28T19:55:34;14.30;;;7.28;;
29422;SDS011;16399;51.686;8.684;2023-02-28T19:58:38;12.73;;;6.70;;
29422;SDS011;16399;51.686;8.684;2023-02-28T20:01:40;17.73;;;9.08;;
29422;SDS011;16399;51.686;8.684;2023-02-28T20:04:45;25.80;;;10.93;;
29422;SDS011;16399;51.686;8.684;2023-02-28T20:07:48;16.55;;;8.03;;